This is the latest recevied weather packets stored in our database for station/object N6WDO. If no packets are shown the sender has not sent any weather packets the latest 10 day(s).
| Time | Temp. | Humidity | Pressure | Rain* | Wind** | Luminosity | Snow |
|---|---|---|---|---|---|---|---|
| 1777846014 | 20.56° C | 56% | 1013.2 hPa | 0 mm | - | 358 W/m² | - |
| 1777845710 | 22.22° C | 49% | 1013.2 hPa | 0 mm | - | 334 W/m² | - |
| 1777845407 | 21.67° C | 54% | 1013.2 hPa | 0 mm | - | 741 W/m² | - |
| 1777845103 | 21.11° C | 54% | 1013 hPa | 0 mm | - | 712 W/m² | - |
| 1777844802 | 20.56° C | 56% | 1013 hPa | 0 mm | - | 692 W/m² | - |
| 1777844498 | 21.67° C | 53% | 1013.1 hPa | 0 mm | - | 263 W/m² | - |
| 1777844192 | 22.78° C | 52% | 1013 hPa | 0 mm | - | 199 W/m² | - |
| 1777843888 | 22.22° C | 56% | 1013.1 hPa | 0 mm | - | 829 W/m² | - |
| 1777843586 | 21.11° C | 55% | 1013 hPa | 0 mm | - | 790 W/m² | - |
| 1777843283 | 22.22° C | 53% | 1013 hPa | 0 mm | - | 794 W/m² | - |
| 1777842981 | 21.67° C | 56% | 1013 hPa | 0 mm | - | 790 W/m² | - |
| 1777842676 | 21.67° C | 55% | 1013.2 hPa | 0 mm | - | 810 W/m² | - |
| 1777842373 | 21.11° C | 57% | 1013.1 hPa | 0 mm | - | 403 W/m² | - |
| 1777842069 | 21.11° C | 58% | 1013.3 hPa | 0 mm | - | 352 W/m² | - |
| 1777841766 | 20.56° C | 57% | 1013.1 hPa | 0 mm | - | 850 W/m² | - |
| 1777841461 | 20.56° C | 60% | 1013.2 hPa | 0 mm | - | 873 W/m² | - |
| 1777841159 | 19.44° C | 62% | 1013.2 hPa | 0 mm | - | 525 W/m² | - |
| 1777840856 | 20.56° C | 61% | 1013.3 hPa | 0 mm | - | 245 W/m² | - |
| 1777840553 | 18.89° C | 63% | 1013.4 hPa | 0 mm | - | 730 W/m² | - |
| 1777840250 | 18.89° C | 64% | 1013.3 hPa | 0 mm | - | 238 W/m² | - |
| 1777839948 | 19.44° C | 61% | 1013.5 hPa | 0 mm | - | 220 W/m² | - |
| 1777839645 | 18.89° C | 67% | 1013.7 hPa | 0 mm | - | 771 W/m² | - |
| 1777839343 | 18.89° C | 67% | 1013.6 hPa | 0 mm | - | 854 W/m² | - |
| 1777839040 | 19.44° C | 65% | 1013.5 hPa | 0 mm | - | 654 W/m² | - |
| 1777838736 | 19.44° C | 64% | 1013.7 hPa | 0 mm | - | 813 W/m² | - |
* Rain latest hour (hover to see other rain measurements)
** Current wind speed in m/s (hover to see current wind gust speed)